sensor_id;sensor_type;location;lat;lon;timestamp;temperature;humidity
60860;DHT22;46694;54.382;9.708;2022-09-09T00:02:27;15.40;99.90
60860;DHT22;46694;54.382;9.708;2022-09-09T00:08:12;15.40;99.90
60860;DHT22;46694;54.382;9.708;2022-09-09T00:11:00;15.40;99.90
60860;DHT22;46694;54.382;9.708;2022-09-09T00:13:52;15.40;99.90
60860;DHT22;46694;54.382;9.708;2022-09-09T00:16:36;15.40;99.90
60860;DHT22;46694;54.382;9.708;2022-09-09T00:19:24;15.50;99.90
60860;DHT22;46694;54.382;9.708;2022-09-09T00:22:18;15.50;99.90
60860;DHT22;46694;54.382;9.708;2022-09-09T00:25:10;15.50;99.90
60860;DHT22;46694;54.382;9.708;2022-09-09T00:27:52;15.50;99.90
60860;DHT22;46694;54.382;9.708;2022-09-09T00:30:35;15.40;99.90
60860;DHT22;46694;54.382;9.708;2022-09-09T00:33:17;15.40;99.90
60860;DHT22;46694;54.382;9.708;2022-09-09T00:36:01;15.40;99.90
60860;DHT22;46694;54.382;9.708;2022-09-09T00:38:57;15.50;99.90
60860;DHT22;46694;54.382;9.708;2022-09-09T00:55:06;15.50;99.90
60860;DHT22;46694;54.382;9.708;2022-09-09T00:57:51;15.50;99.90
60860;DHT22;46694;54.382;9.708;2022-09-09T01:00:39;15.50;99.90
60860;DHT22;46694;54.382;9.708;2022-09-09T01:03:44;15.50;99.90
60860;DHT22;46694;54.382;9.708;2022-09-09T01:06:34;15.50;99.90
60860;DHT22;46694;54.382;9.708;2022-09-09T01:09:48;15.60;99.90
60860;DHT22;46694;54.382;9.708;2022-09-09T01:12:43;15.60;99.90
60860;DHT22;46694;54.382;9.708;2022-09-09T01:15:28;15.60;99.90
60860;DHT22;46694;54.382;9.708;2022-09-09T01:18:12;15.60;99.90
60860;DHT22;46694;54.382;9.708;2022-09-09T01:28:00;15.60;99.90
60860;DHT22;46694;54.382;9.708;2022-09-09T01:30:42;15.60;99.90
60860;DHT22;46694;54.382;9.708;2022-09-09T01:33:22;15.60;99.90
60860;DHT22;46694;54.382;9.708;2022-09-09T01:36:24;15.60;99.90
60860;DHT22;46694;54.382;9.708;2022-09-09T01:39:09;15.60;99.90
60860;DHT22;46694;54.382;9.708;2022-09-09T01:41:49;15.70;99.90
60860;DHT22;46694;54.382;9.708;2022-09-09T01:44:29;15.70;99.90
60860;DHT22;46694;54.382;9.708;2022-09-09T01:47:09;15.60;99.90
60860;DHT22;46694;54.382;9.708;2022-09-09T01:49:49;15.70;99.90
60860;DHT22;46694;54.382;9.708;2022-09-09T01:52:29;15.70;99.90
60860;DHT22;46694;54.382;9.708;2022-09-09T01:55:10;15.70;99.90
60860;DHT22;46694;54.382;9.708;2022-09-09T01:58:01;15.70;99.90
60860;DHT22;46694;54.382;9.708;2022-09-09T02:01:02;15.70;99.90
60860;DHT22;46694;54.382;9.708;2022-09-09T02:03:49;15.70;99.90
60860;DHT22;46694;54.382;9.708;2022-09-09T02:06:39;15.70;99.90
60860;DHT22;46694;54.382;9.708;2022-09-09T02:09:23;15.70;99.90
60860;DHT22;46694;54.382;9.708;2022-09-09T02:12:12;15.70;99.90
60860;DHT22;46694;54.382;9.708;2022-09-09T02:15:01;15.70;99.90
60860;DHT22;46694;54.382;9.708;2022-09-09T02:17:46;15.60;99.90
60860;DHT22;46694;54.382;9.708;2022-09-09T02:20:30;15.60;99.90
60860;DHT22;46694;54.382;9.708;2022-09-09T02:23:13;15.60;99.90
60860;DHT22;46694;54.382;9.708;2022-09-09T02:25:55;15.70;99.90
60860;DHT22;46694;54.382;9.708;2022-09-09T02:28:36;15.70;99.90
60860;DHT22;46694;54.382;9.708;2022-09-09T02:31:20;15.70;99.90
60860;DHT22;46694;54.382;9.708;2022-09-09T02:34:03;15.60;99.90
60860;DHT22;46694;54.382;9.708;2022-09-09T02:36:45;15.60;99.90
60860;DHT22;46694;54.382;9.708;2022-09-09T02:39:27;15.60;99.90
60860;DHT22;46694;54.382;9.708;2022-09-09T02:42:06;15.60;99.90
60860;DHT22;46694;54.382;9.708;2022-09-09T02:44:47;15.50;99.90
60860;DHT22;46694;54.382;9.708;2022-09-09T02:48:09;15.60;99.90
60860;DHT22;46694;54.382;9.708;2022-09-09T02:57:12;15.60;99.90
60860;DHT22;46694;54.382;9.708;2022-09-09T03:00:05;15.60;99.90
60860;DHT22;46694;54.382;9.708;2022-09-09T03:02:45;15.50;99.90
60860;DHT22;46694;54.382;9.708;2022-09-09T03:05:25;15.50;99.90
60860;DHT22;46694;54.382;9.708;2022-09-09T03:08:05;15.50;99.90
60860;DHT22;46694;54.382;9.708;2022-09-09T03:10:45;15.50;99.90
60860;DHT22;46694;54.382;9.708;2022-09-09T03:13:24;15.50;99.90
60860;DHT22;46694;54.382;9.708;2022-09-09T03:16:04;15.50;99.90
60860;DHT22;46694;54.382;9.708;2022-09-09T03:18:44;15.40;99.90
60860;DHT22;46694;54.382;9.708;2022-09-09T03:21:25;15.40;99.90
60860;DHT22;46694;54.382;9.708;2022-09-09T03:24:04;15.40;99.90
60860;DHT22;46694;54.382;9.708;2022-09-09T03:26:45;15.40;99.90
60860;DHT22;46694;54.382;9.708;2022-09-09T03:29:25;15.40;99.90
60860;DHT22;46694;54.382;9.708;2022-09-09T03:32:05;15.40;99.90
60860;DHT22;46694;54.382;9.708;2022-09-09T03:34:45;15.30;99.90
60860;DHT22;46694;54.382;9.708;2022-09-09T03:37:26;15.30;99.90
60860;DHT22;46694;54.382;9.708;2022-09-09T03:40:06;15.30;99.90
60860;DHT22;46694;54.382;9.708;2022-09-09T03:42:47;15.30;99.90
60860;DHT22;46694;54.382;9.708;2022-09-09T03:45:27;15.30;99.90
60860;DHT22;46694;54.382;9.708;2022-09-09T03:48:07;15.30;99.90
60860;DHT22;46694;54.382;9.708;2022-09-09T03:50:50;15.30;99.90
60860;DHT22;46694;54.382;9.708;2022-09-09T03:53:31;15.30;99.90
60860;DHT22;46694;54.382;9.708;2022-09-09T03:56:11;15.20;99.90
60860;DHT22;46694;54.382;9.708;2022-09-09T03:58:50;15.20;99.90
60860;DHT22;46694;54.382;9.708;2022-09-09T04:01:30;15.20;99.90
60860;DHT22;46694;54.382;9.708;2022-09-09T04:04:09;15.20;99.90
60860;DHT22;46694;54.382;9.708;2022-09-09T04:06:51;15.10;99.90
60860;DHT22;46694;54.382;9.708;2022-09-09T04:09:31;15.10;99.90
60860;DHT22;46694;54.382;9.708;2022-09-09T04:12:10;15.10;99.90
60860;DHT22;46694;54.382;9.708;2022-09-09T04:14:52;15.10;99.90
60860;DHT22;46694;54.382;9.708;2022-09-09T04:17:31;15.10;99.90
60860;DHT22;46694;54.382;9.708;2022-09-09T04:20:11;15.10;99.90
60860;DHT22;46694;54.382;9.708;2022-09-09T04:22:51;15.10;99.90
60860;DHT22;46694;54.382;9.708;2022-09-09T04:25:30;15.10;99.90
60860;DHT22;46694;54.382;9.708;2022-09-09T04:28:10;15.00;99.90
60860;DHT22;46694;54.382;9.708;2022-09-09T04:30:50;15.00;99.90
60860;DHT22;46694;54.382;9.708;2022-09-09T04:33:31;14.90;99.90
60860;DHT22;46694;54.382;9.708;2022-09-09T04:36:11;14.90;99.90
60860;DHT22;46694;54.382;9.708;2022-09-09T04:38:51;15.00;99.90
60860;DHT22;46694;54.382;9.708;2022-09-09T04:41:32;15.00;99.90
60860;DHT22;46694;54.382;9.708;2022-09-09T04:44:11;15.00;99.90
60860;DHT22;46694;54.382;9.708;2022-09-09T04:46:50;15.00;99.90
60860;DHT22;46694;54.382;9.708;2022-09-09T04:49:30;15.00;99.90
60860;DHT22;46694;54.382;9.708;2022-09-09T04:52:10;15.00;99.90
60860;DHT22;46694;54.382;9.708;2022-09-09T04:54:50;14.90;99.90
60860;DHT22;46694;54.382;9.708;2022-09-09T04:57:29;14.90;99.90
60860;DHT22;46694;54.382;9.708;2022-09-09T05:00:11;14.80;99.90
60860;DHT22;46694;54.382;9.708;2022-09-09T05:02:52;14.80;99.90
60860;DHT22;46694;54.382;9.708;2022-09-09T05:05:32;14.80;99.90
60860;DHT22;46694;54.382;9.708;2022-09-09T05:08:15;14.90;99.90
60860;DHT22;46694;54.382;9.708;2022-09-09T05:10:55;14.90;99.90
60860;DHT22;46694;54.382;9.708;2022-09-09T05:13:34;14.90;99.90
60860;DHT22;46694;54.382;9.708;2022-09-09T05:16:40;14.80;99.90
60860;DHT22;46694;54.382;9.708;2022-09-09T05:19:19;14.80;99.90
60860;DHT22;46694;54.382;9.708;2022-09-09T05:21:59;14.80;99.90
60860;DHT22;46694;54.382;9.708;2022-09-09T05:24:40;14.80;99.90
60860;DHT22;46694;54.382;9.708;2022-09-09T05:27:19;14.80;99.90
60860;DHT22;46694;54.382;9.708;2022-09-09T05:29:59;14.80;99.90
60860;DHT22;46694;54.382;9.708;2022-09-09T05:32:39;14.80;99.90
60860;DHT22;46694;54.382;9.708;2022-09-09T05:35:19;14.80;99.90
60860;DHT22;46694;54.382;9.708;2022-09-09T05:38:00;14.80;99.90
60860;DHT22;46694;54.382;9.708;2022-09-09T05:40:41;14.90;99.90
60860;DHT22;46694;54.382;9.708;2022-09-09T05:43:28;14.90;99.90
60860;DHT22;46694;54.382;9.708;2022-09-09T05:46:10;14.90;99.90
60860;DHT22;46694;54.382;9.708;2022-09-09T05:48:52;14.90;99.90
60860;DHT22;46694;54.382;9.708;2022-09-09T05:51:32;14.90;99.90
60860;DHT22;46694;54.382;9.708;2022-09-09T05:54:12;14.90;99.90
60860;DHT22;46694;54.382;9.708;2022-09-09T05:56:54;15.00;99.90
60860;DHT22;46694;54.382;9.708;2022-09-09T05:59:33;14.90;99.90
60860;DHT22;46694;54.382;9.708;2022-09-09T06:02:13;14.90;99.90
60860;DHT22;46694;54.382;9.708;2022-09-09T06:04:53;14.90;99.90
60860;DHT22;46694;54.382;9.708;2022-09-09T06:07:34;14.90;99.90
60860;DHT22;46694;54.382;9.708;2022-09-09T06:10:14;14.90;99.90
60860;DHT22;46694;54.382;9.708;2022-09-09T06:12:54;14.90;99.90
60860;DHT22;46694;54.382;9.708;2022-09-09T06:15:33;14.90;99.90
60860;DHT22;46694;54.382;9.708;2022-09-09T06:18:13;15.00;99.90
60860;DHT22;46694;54.382;9.708;2022-09-09T06:21:01;14.90;99.90
60860;DHT22;46694;54.382;9.708;2022-09-09T06:23:43;15.00;99.90
60860;DHT22;46694;54.382;9.708;2022-09-09T06:26:32;15.10;99.90
60860;DHT22;46694;54.382;9.708;2022-09-09T06:29:13;15.10;99.90
60860;DHT22;46694;54.382;9.708;2022-09-09T06:31:52;15.10;99.90
60860;DHT22;46694;54.382;9.708;2022-09-09T06:34:32;15.20;99.90
60860;DHT22;46694;54.382;9.708;2022-09-09T06:37:12;15.20;99.90
60860;DHT22;46694;54.382;9.708;2022-09-09T06:39:52;15.20;99.90
60860;DHT22;46694;54.382;9.708;2022-09-09T06:42:31;15.20;99.90
60860;DHT22;46694;54.382;9.708;2022-09-09T06:45:11;15.10;99.90
60860;DHT22;46694;54.382;9.708;2022-09-09T06:47:51;15.20;99.90
60860;DHT22;46694;54.382;9.708;2022-09-09T06:50:31;15.20;99.90
60860;DHT22;46694;54.382;9.708;2022-09-09T06:53:10;15.20;99.90
60860;DHT22;46694;54.382;9.708;2022-09-09T06:55:50;15.40;99.90
60860;DHT22;46694;54.382;9.708;2022-09-09T06:58:30;15.40;99.90
60860;DHT22;46694;54.382;9.708;2022-09-09T07:01:13;15.50;99.90
60860;DHT22;46694;54.382;9.708;2022-09-09T07:03:55;15.50;99.90
60860;DHT22;46694;54.382;9.708;2022-09-09T07:06:40;15.50;99.90
60860;DHT22;46694;54.382;9.708;2022-09-09T07:09:22;15.50;99.90
60860;DHT22;46694;54.382;9.708;2022-09-09T07:12:03;15.60;99.90
60860;DHT22;46694;54.382;9.708;2022-09-09T07:14:44;15.70;99.90
60860;DHT22;46694;54.382;9.708;2022-09-09T07:17:24;15.80;99.90
60860;DHT22;46694;54.382;9.708;2022-09-09T07:20:04;15.90;99.90
60860;DHT22;46694;54.382;9.708;2022-09-09T07:22:44;16.00;99.90
60860;DHT22;46694;54.382;9.708;2022-09-09T07:25:24;16.10;99.90
60860;DHT22;46694;54.382;9.708;2022-09-09T07:28:06;16.20;99.90
60860;DHT22;46694;54.382;9.708;2022-09-09T07:31:00;16.20;99.90
60860;DHT22;46694;54.382;9.708;2022-09-09T07:33:41;16.30;99.90
60860;DHT22;46694;54.382;9.708;2022-09-09T07:36:26;16.40;99.90
60860;DHT22;46694;54.382;9.708;2022-09-09T07:39:10;16.50;99.90
60860;DHT22;46694;54.382;9.708;2022-09-09T07:41:54;16.70;99.90
60860;DHT22;46694;54.382;9.708;2022-09-09T07:44:33;16.90;99.90
60860;DHT22;46694;54.382;9.708;2022-09-09T07:47:14;17.00;99.90
60860;DHT22;46694;54.382;9.708;2022-09-09T07:49:54;17.20;99.90
60860;DHT22;46694;54.382;9.708;2022-09-09T07:52:34;17.40;99.90
60860;DHT22;46694;54.382;9.708;2022-09-09T07:55:14;17.50;99.90
60860;DHT22;46694;54.382;9.708;2022-09-09T07:57:54;17.50;99.90
60860;DHT22;46694;54.382;9.708;2022-09-09T08:00:34;17.70;99.90
60860;DHT22;46694;54.382;9.708;2022-09-09T08:03:14;17.90;99.90
60860;DHT22;46694;54.382;9.708;2022-09-09T08:06:07;18.00;99.90
60860;DHT22;46694;54.382;9.708;2022-09-09T08:08:50;18.10;99.90
60860;DHT22;46694;54.382;9.708;2022-09-09T08:11:33;18.30;99.90
60860;DHT22;46694;54.382;9.708;2022-09-09T08:14:14;18.40;99.90
60860;DHT22;46694;54.382;9.708;2022-09-09T08:16:54;18.50;99.90
60860;DHT22;46694;54.382;9.708;2022-09-09T08:19:33;18.40;99.90
60860;DHT22;46694;54.382;9.708;2022-09-09T08:22:15;18.40;99.90
60860;DHT22;46694;54.382;9.708;2022-09-09T08:24:54;18.40;99.90
60860;DHT22;46694;54.382;9.708;2022-09-09T08:27:34;18.40;99.90
60860;DHT22;46694;54.382;9.708;2022-09-09T08:30:13;18.50;99.90
60860;DHT22;46694;54.382;9.708;2022-09-09T08:32:53;18.70;99.90
60860;DHT22;46694;54.382;9.708;2022-09-09T08:35:32;18.60;99.90
60860;DHT22;46694;54.382;9.708;2022-09-09T08:38:13;19.00;99.90
60860;DHT22;46694;54.382;9.708;2022-09-09T08:40:53;19.30;99.90
60860;DHT22;46694;54.382;9.708;2022-09-09T08:43:39;19.40;99.90
60860;DHT22;46694;54.382;9.708;2022-09-09T08:53:26;19.80;99.90
60860;DHT22;46694;54.382;9.708;2022-09-09T08:56:12;19.90;99.90
60860;DHT22;46694;54.382;9.708;2022-09-09T08:58:55;20.10;99.90
60860;DHT22;46694;54.382;9.708;2022-09-09T09:11:08;21.00;99.90
60860;DHT22;46694;54.382;9.708;2022-09-09T09:19:46;20.60;99.90
60860;DHT22;46694;54.382;9.708;2022-09-09T09:22:36;20.60;99.90
60860;DHT22;46694;54.382;9.708;2022-09-09T09:25:21;20.70;99.90
60860;DHT22;46694;54.382;9.708;2022-09-09T09:31:35;20.90;99.90
60860;DHT22;46694;54.382;9.708;2022-09-09T09:34:15;21.00;99.90
60860;DHT22;46694;54.382;9.708;2022-09-09T09:36:56;20.80;99.90
60860;DHT22;46694;54.382;9.708;2022-09-09T09:39:37;20.40;99.90
60860;DHT22;46694;54.382;9.708;2022-09-09T09:42:19;20.20;99.90
60860;DHT22;46694;54.382;9.708;2022-09-09T09:45:18;19.90;99.90
60860;DHT22;46694;54.382;9.708;2022-09-09T09:48:05;19.60;99.90
60860;DHT22;46694;54.382;9.708;2022-09-09T09:50:57;19.50;99.90
60860;DHT22;46694;54.382;9.708;2022-09-09T09:53:42;19.60;99.90
60860;DHT22;46694;54.382;9.708;2022-09-09T09:56:28;19.70;99.90
60860;DHT22;46694;54.382;9.708;2022-09-09T10:05:16;19.60;99.90
60860;DHT22;46694;54.382;9.708;2022-09-09T10:14:30;20.00;99.90
60860;DHT22;46694;54.382;9.708;2022-09-09T10:20:41;20.00;99.90
60860;DHT22;46694;54.382;9.708;2022-09-09T10:24:19;20.00;99.90
60860;DHT22;46694;54.382;9.708;2022-09-09T10:33:58;20.20;99.90
60860;DHT22;46694;54.382;9.708;2022-09-09T10:36:49;20.40;99.90
60860;DHT22;46694;54.382;9.708;2022-09-09T10:39:37;20.50;99.90
60860;DHT22;46694;54.382;9.708;2022-09-09T10:42:20;20.70;99.90
60860;DHT22;46694;54.382;9.708;2022-09-09T10:54:13;21.70;99.70
60860;DHT22;46694;54.382;9.708;2022-09-09T10:57:10;21.90;99.80
60860;DHT22;46694;54.382;9.708;2022-09-09T10:59:55;22.10;99.30
60860;DHT22;46694;54.382;9.708;2022-09-09T11:02:36;22.20;98.60
60860;DHT22;46694;54.382;9.708;2022-09-09T11:05:22;22.20;98.40
60860;DHT22;46694;54.382;9.708;2022-09-09T11:08:23;22.20;98.20
60860;DHT22;46694;54.382;9.708;2022-09-09T11:11:13;22.10;97.90
60860;DHT22;46694;54.382;9.708;2022-09-09T11:14:25;22.10;97.60
60860;DHT22;46694;54.382;9.708;2022-09-09T11:17:20;22.00;97.10
60860;DHT22;46694;54.382;9.708;2022-09-09T11:20:02;21.90;97.40
60860;DHT22;46694;54.382;9.708;2022-09-09T11:26:24;22.00;97.40
60860;DHT22;46694;54.382;9.708;2022-09-09T11:44:52;22.40;95.90
60860;DHT22;46694;54.382;9.708;2022-09-09T11:47:35;22.40;95.80
60860;DHT22;46694;54.382;9.708;2022-09-09T11:53:24;22.40;96.00
60860;DHT22;46694;54.382;9.708;2022-09-09T11:56:45;22.80;96.00
60860;DHT22;46694;54.382;9.708;2022-09-09T11:59:28;23.10;95.00
60860;DHT22;46694;54.382;9.708;2022-09-09T12:02:29;23.00;94.20
60860;DHT22;46694;54.382;9.708;2022-09-09T12:05:12;23.00;94.10
60860;DHT22;46694;54.382;9.708;2022-09-09T12:07:56;22.90;94.30
60860;DHT22;46694;54.382;9.708;2022-09-09T12:10:39;22.80;94.00
60860;DHT22;46694;54.382;9.708;2022-09-09T12:13:22;22.70;94.30
60860;DHT22;46694;54.382;9.708;2022-09-09T12:16:35;22.80;94.30
60860;DHT22;46694;54.382;9.708;2022-09-09T12:19:21;23.00;93.60
60860;DHT22;46694;54.382;9.708;2022-09-09T12:22:11;22.90;93.30
60860;DHT22;46694;54.382;9.708;2022-09-09T12:25:08;22.90;93.50
60860;DHT22;46694;54.382;9.708;2022-09-09T12:37:35;22.40;93.70
60860;DHT22;46694;54.382;9.708;2022-09-09T12:40:25;22.40;93.80
60860;DHT22;46694;54.382;9.708;2022-09-09T12:43:20;22.40;93.80
60860;DHT22;46694;54.382;9.708;2022-09-09T12:46:06;22.50;94.00
60860;DHT22;46694;54.382;9.708;2022-09-09T12:48:47;22.70;93.80
60860;DHT22;46694;54.382;9.708;2022-09-09T12:51:30;22.80;93.30
60860;DHT22;46694;54.382;9.708;2022-09-09T12:54:14;22.70;92.90
60860;DHT22;46694;54.382;9.708;2022-09-09T12:56:54;22.50;92.90
60860;DHT22;46694;54.382;9.708;2022-09-09T12:59:43;22.30;93.10
60860;DHT22;46694;54.382;9.708;2022-09-09T13:02:27;22.30;93.10
60860;DHT22;46694;54.382;9.708;2022-09-09T13:05:15;22.30;93.40
60860;DHT22;46694;54.382;9.708;2022-09-09T13:08:04;22.40;93.30
60860;DHT22;46694;54.382;9.708;2022-09-09T13:10:59;22.50;93.00
60860;DHT22;46694;54.382;9.708;2022-09-09T13:13:41;22.70;93.00
60860;DHT22;46694;54.382;9.708;2022-09-09T13:16:32;22.90;92.70
60860;DHT22;46694;54.382;9.708;2022-09-09T13:19:15;23.00;92.30
60860;DHT22;46694;54.382;9.708;2022-09-09T13:21:55;23.00;92.00
60860;DHT22;46694;54.382;9.708;2022-09-09T13:24:35;22.90;91.80
60860;DHT22;46694;54.382;9.708;2022-09-09T13:27:31;22.80;91.90
60860;DHT22;46694;54.382;9.708;2022-09-09T13:30:25;22.80;92.30
60860;DHT22;46694;54.382;9.708;2022-09-09T13:35:54;23.00;92.00
60860;DHT22;46694;54.382;9.708;2022-09-09T13:41:36;22.80;91.70
60860;DHT22;46694;54.382;9.708;2022-09-09T13:44:27;22.50;91.60
60860;DHT22;46694;54.382;9.708;2022-09-09T13:47:19;22.40;91.40
60860;DHT22;46694;54.382;9.708;2022-09-09T13:50:35;22.40;91.80
60860;DHT22;46694;54.382;9.708;2022-09-09T13:53:15;22.40;91.90
60860;DHT22;46694;54.382;9.708;2022-09-09T13:55:55;22.40;91.70
60860;DHT22;46694;54.382;9.708;2022-09-09T13:58:35;22.30;91.80
60860;DHT22;46694;54.382;9.708;2022-09-09T14:01:15;22.20;92.00
60860;DHT22;46694;54.382;9.708;2022-09-09T14:03:54;22.20;92.30
60860;DHT22;46694;54.382;9.708;2022-09-09T14:06:35;22.20;92.50
60860;DHT22;46694;54.382;9.708;2022-09-09T14:09:18;22.30;92.50
60860;DHT22;46694;54.382;9.708;2022-09-09T14:11:58;22.30;92.50
60860;DHT22;46694;54.382;9.708;2022-09-09T14:14:38;22.30;92.50
60860;DHT22;46694;54.382;9.708;2022-09-09T14:17:18;22.40;92.40
60860;DHT22;46694;54.382;9.708;2022-09-09T14:19:58;22.40;92.30
60860;DHT22;46694;54.382;9.708;2022-09-09T14:22:37;22.40;92.30
60860;DHT22;46694;54.382;9.708;2022-09-09T14:25:18;22.40;92.40
60860;DHT22;46694;54.382;9.708;2022-09-09T14:27:57;22.40;92.60
60860;DHT22;46694;54.382;9.708;2022-09-09T14:30:39;22.30;92.60
60860;DHT22;46694;54.382;9.708;2022-09-09T14:33:18;22.40;92.70
60860;DHT22;46694;54.382;9.708;2022-09-09T14:36:00;22.50;92.80
60860;DHT22;46694;54.382;9.708;2022-09-09T14:38:41;22.50;92.70
60860;DHT22;46694;54.382;9.708;2022-09-09T14:41:21;22.40;92.30
60860;DHT22;46694;54.382;9.708;2022-09-09T14:44:01;22.20;92.40
60860;DHT22;46694;54.382;9.708;2022-09-09T14:46:41;22.10;92.70
60860;DHT22;46694;54.382;9.708;2022-09-09T14:49:21;22.00;92.90
60860;DHT22;46694;54.382;9.708;2022-09-09T14:52:01;22.00;93.60
60860;DHT22;46694;54.382;9.708;2022-09-09T14:54:41;22.10;93.30
60860;DHT22;46694;54.382;9.708;2022-09-09T14:57:21;22.00;93.10
60860;DHT22;46694;54.382;9.708;2022-09-09T15:00:01;22.00;93.10
60860;DHT22;46694;54.382;9.708;2022-09-09T15:02:43;22.00;93.20
60860;DHT22;46694;54.382;9.708;2022-09-09T15:05:22;22.00;93.20
60860;DHT22;46694;54.382;9.708;2022-09-09T15:08:03;22.00;93.10
60860;DHT22;46694;54.382;9.708;2022-09-09T15:10:42;21.90;93.10
60860;DHT22;46694;54.382;9.708;2022-09-09T15:13:24;21.90;93.20
60860;DHT22;46694;54.382;9.708;2022-09-09T15:16:25;21.90;93.50
60860;DHT22;46694;54.382;9.708;2022-09-09T15:19:06;21.80;93.40
60860;DHT22;46694;54.382;9.708;2022-09-09T15:21:46;21.70;93.60
60860;DHT22;46694;54.382;9.708;2022-09-09T15:24:26;21.60;93.80
60860;DHT22;46694;54.382;9.708;2022-09-09T15:27:06;21.60;93.80
60860;DHT22;46694;54.382;9.708;2022-09-09T15:29:45;21.50;93.70
60860;DHT22;46694;54.382;9.708;2022-09-09T15:32:27;21.40;93.30
60860;DHT22;46694;54.382;9.708;2022-09-09T15:35:07;21.00;92.50
60860;DHT22;46694;54.382;9.708;2022-09-09T15:37:46;20.70;92.60
60860;DHT22;46694;54.382;9.708;2022-09-09T15:40:26;20.30;92.90
60860;DHT22;46694;54.382;9.708;2022-09-09T15:43:06;20.10;93.10
60860;DHT22;46694;54.382;9.708;2022-09-09T15:45:51;20.00;93.60
60860;DHT22;46694;54.382;9.708;2022-09-09T15:48:33;19.80;94.10
60860;DHT22;46694;54.382;9.708;2022-09-09T15:51:13;19.70;94.90
60860;DHT22;46694;54.382;9.708;2022-09-09T15:53:57;19.50;95.70
60860;DHT22;46694;54.382;9.708;2022-09-09T15:56:37;19.40;96.60
60860;DHT22;46694;54.382;9.708;2022-09-09T15:59:17;19.20;97.30
60860;DHT22;46694;54.382;9.708;2022-09-09T16:01:58;19.00;97.90
60860;DHT22;46694;54.382;9.708;2022-09-09T16:04:39;18.80;98.50
60860;DHT22;46694;54.382;9.708;2022-09-09T16:07:18;18.70;99.10
60860;DHT22;46694;54.382;9.708;2022-09-09T16:09:59;18.60;99.50
60860;DHT22;46694;54.382;9.708;2022-09-09T16:12:39;18.40;99.60
60860;DHT22;46694;54.382;9.708;2022-09-09T16:15:19;18.30;99.90
60860;DHT22;46694;54.382;9.708;2022-09-09T16:18:01;18.20;99.90
60860;DHT22;46694;54.382;9.708;2022-09-09T16:20:42;18.20;99.90
60860;DHT22;46694;54.382;9.708;2022-09-09T16:23:21;18.20;99.90
60860;DHT22;46694;54.382;9.708;2022-09-09T16:26:01;18.30;99.90
60860;DHT22;46694;54.382;9.708;2022-09-09T16:28:42;18.30;99.90
60860;DHT22;46694;54.382;9.708;2022-09-09T16:31:23;18.30;99.90
60860;DHT22;46694;54.382;9.708;2022-09-09T16:34:03;18.30;99.90
60860;DHT22;46694;54.382;9.708;2022-09-09T16:36:44;18.30;99.90
60860;DHT22;46694;54.382;9.708;2022-09-09T16:39:23;18.30;99.90
60860;DHT22;46694;54.382;9.708;2022-09-09T16:42:03;18.20;99.90
60860;DHT22;46694;54.382;9.708;2022-09-09T16:44:43;18.20;99.90
60860;DHT22;46694;54.382;9.708;2022-09-09T16:47:23;18.20;99.90
60860;DHT22;46694;54.382;9.708;2022-09-09T16:50:03;18.20;99.90
60860;DHT22;46694;54.382;9.708;2022-09-09T16:52:43;18.20;99.90
60860;DHT22;46694;54.382;9.708;2022-09-09T16:55:23;18.20;99.90
60860;DHT22;46694;54.382;9.708;2022-09-09T16:58:03;18.10;99.90
60860;DHT22;46694;54.382;9.708;2022-09-09T17:00:43;18.10;99.90
60860;DHT22;46694;54.382;9.708;2022-09-09T17:03:22;18.10;99.90
60860;DHT22;46694;54.382;9.708;2022-09-09T17:06:03;18.10;99.90
60860;DHT22;46694;54.382;9.708;2022-09-09T17:08:53;18.00;99.90
60860;DHT22;46694;54.382;9.708;2022-09-09T17:11:33;18.00;99.90
60860;DHT22;46694;54.382;9.708;2022-09-09T17:14:15;17.90;99.90
60860;DHT22;46694;54.382;9.708;2022-09-09T17:16:56;17.90;99.90
60860;DHT22;46694;54.382;9.708;2022-09-09T17:19:36;17.90;99.90
60860;DHT22;46694;54.382;9.708;2022-09-09T17:22:16;17.90;99.90
60860;DHT22;46694;54.382;9.708;2022-09-09T17:24:55;17.80;99.90
60860;DHT22;46694;54.382;9.708;2022-09-09T17:27:35;17.80;99.90
60860;DHT22;46694;54.382;9.708;2022-09-09T17:30:15;17.80;99.90
60860;DHT22;46694;54.382;9.708;2022-09-09T17:32:55;17.80;99.90
60860;DHT22;46694;54.382;9.708;2022-09-09T17:35:35;17.80;99.90
60860;DHT22;46694;54.382;9.708;2022-09-09T17:38:14;17.70;99.90
60860;DHT22;46694;54.382;9.708;2022-09-09T17:41:03;17.70;99.90
60860;DHT22;46694;54.382;9.708;2022-09-09T17:43:49;17.70;99.90
60860;DHT22;46694;54.382;9.708;2022-09-09T17:46:32;17.70;99.90
60860;DHT22;46694;54.382;9.708;2022-09-09T17:49:15;17.60;99.90
60860;DHT22;46694;54.382;9.708;2022-09-09T17:51:56;17.60;99.90
60860;DHT22;46694;54.382;9.708;2022-09-09T17:54:36;17.60;99.90
60860;DHT22;46694;54.382;9.708;2022-09-09T17:57:16;17.60;99.90
60860;DHT22;46694;54.382;9.708;2022-09-09T17:59:58;17.60;99.90
60860;DHT22;46694;54.382;9.708;2022-09-09T18:02:37;17.60;99.90
60860;DHT22;46694;54.382;9.708;2022-09-09T18:05:17;17.50;99.90
60860;DHT22;46694;54.382;9.708;2022-09-09T18:07:57;17.40;99.90
60860;DHT22;46694;54.382;9.708;2022-09-09T18:10:36;17.40;99.90
60860;DHT22;46694;54.382;9.708;2022-09-09T18:13:16;17.40;99.90
60860;DHT22;46694;54.382;9.708;2022-09-09T18:15:56;17.40;99.90
60860;DHT22;46694;54.382;9.708;2022-09-09T18:18:57;17.30;99.90
60860;DHT22;46694;54.382;9.708;2022-09-09T18:21:37;17.20;99.90
60860;DHT22;46694;54.382;9.708;2022-09-09T18:24:18;17.20;99.90
60860;DHT22;46694;54.382;9.708;2022-09-09T18:26:58;17.10;99.90
60860;DHT22;46694;54.382;9.708;2022-09-09T18:29:39;17.10;99.90
60860;DHT22;46694;54.382;9.708;2022-09-09T18:32:19;17.00;99.90
60860;DHT22;46694;54.382;9.708;2022-09-09T18:34:59;17.00;99.90
60860;DHT22;46694;54.382;9.708;2022-09-09T18:37:39;16.90;99.90
60860;DHT22;46694;54.382;9.708;2022-09-09T18:40:18;16.80;99.90
60860;DHT22;46694;54.382;9.708;2022-09-09T18:42:58;16.80;99.90
60860;DHT22;46694;54.382;9.708;2022-09-09T18:45:38;16.70;99.90
60860;DHT22;46694;54.382;9.708;2022-09-09T18:48:17;16.70;99.90
60860;DHT22;46694;54.382;9.708;2022-09-09T18:51:05;16.60;99.90
60860;DHT22;46694;54.382;9.708;2022-09-09T18:53:51;16.70;99.90
60860;DHT22;46694;54.382;9.708;2022-09-09T18:56:31;16.60;99.90
60860;DHT22;46694;54.382;9.708;2022-09-09T18:59:14;16.60;99.90
60860;DHT22;46694;54.382;9.708;2022-09-09T19:01:58;16.60;99.90
60860;DHT22;46694;54.382;9.708;2022-09-09T19:04:37;16.50;99.90
60860;DHT22;46694;54.382;9.708;2022-09-09T19:07:17;16.50;99.90
60860;DHT22;46694;54.382;9.708;2022-09-09T19:09:58;16.50;99.90
60860;DHT22;46694;54.382;9.708;2022-09-09T19:12:40;16.40;99.90
60860;DHT22;46694;54.382;9.708;2022-09-09T19:15:19;16.40;99.90
60860;DHT22;46694;54.382;9.708;2022-09-09T19:17:59;16.30;99.90